Time;durP1;ratioP1;P1;durP2;ratioP2;P2;SDS_P1;SDS_P2;PMS_P1;PMS_P2;Temp;Humidity;BMP_temperature;BMP_pressure;BME280_temperature;BME280_humidity;BME280_pressure;Samples;Min_cycle;Max_cycle;Signal;HPM_P1;HPM_P2
2022/05/09 00:02:15;;;;;;;;;;;23.10;40.70;;;;;;5017936;28;19964;-76
2022/05/09 00:04:40;;;;;;;;;;;23.10;40.80;;;;;;4990855;28;19928;-76
2022/05/09 00:07:06;;;;;;;;;;;23.10;40.70;;;;;;5008265;28;19917;-76
2022/05/09 00:09:31;;;;;;;;;;;23.10;40.60;;;;;;5047457;28;19913;-76
2022/05/09 00:11:57;;;;;;;;;;;23.10;40.60;;;;;;5046721;28;19910;-76
2022/05/09 00:14:22;;;;;;;;;;;23.10;40.70;;;;;;5046716;28;19932;-76
2022/05/09 00:16:50;;;;;;;;;;;23.10;40.70;;;;;;5047435;28;19913;-76
2022/05/09 00:19:17;;;;;;;;;;;23.10;40.70;;;;;;5014242;28;19924;-76
2022/05/09 00:21:43;;;;;;;;;;;23.00;40.70;;;;;;5046734;28;20305;-76
2022/05/09 00:24:12;;;;;;;;;;;23.00;40.70;;;;;;5035010;28;19909;-77
2022/05/09 00:26:38;;;;;;;;;;;23.00;41.30;;;;;;5009899;28;19932;-76
2022/05/09 00:29:04;;;;;;;;;;;23.00;40.70;;;;;;5027307;28;20366;-77
2022/05/09 00:31:30;;;;;;;;;;;23.10;40.70;;;;;;5026713;28;19941;-76
2022/05/09 00:33:56;;;;;;;;;;;23.00;40.60;;;;;;5027119;28;20263;-76
2022/05/09 00:36:21;;;;;;;;;;;23.00;40.50;;;;;;5026948;28;20189;-77
2022/05/09 00:38:47;;;;;;;;;;;23.00;40.60;;;;;;5020582;28;19909;-76
2022/05/09 00:41:34;;;;;;;;;;;23.00;40.50;;;;;;5033225;28;19984;-76
2022/05/09 00:43:59;;;;;;;;;;;23.00;40.60;;;;;;4993986;28;19909;-77
2022/05/09 00:46:24;;;;;;;;;;;23.00;40.70;;;;;;4993667;28;20429;-76
2022/05/09 00:48:50;;;;;;;;;;;23.00;40.50;;;;;;4994330;28;20386;-75
2022/05/09 00:51:19;;;;;;;;;;;23.00;40.50;;;;;;4977483;28;19937;-76
2022/05/09 00:53:45;;;;;;;;;;;23.00;40.50;;;;;;4999189;28;20345;-76
2022/05/09 00:56:13;;;;;;;;;;;23.00;41.00;;;;;;5029469;28;19928;-76
2022/05/09 00:58:40;;;;;;;;;;;22.90;40.50;;;;;;5045286;28;19917;-76
2022/05/09 01:01:05;;;;;;;;;;;22.90;41.20;;;;;;5004555;28;19996;-76
2022/05/09 01:03:38;;;;;;;;;;;22.90;40.50;;;;;;5027995;28;20397;-75
2022/05/09 01:06:04;;;;;;;;;;;22.90;40.50;;;;;;5028833;28;19975;-76
2022/05/09 01:08:29;;;;;;;;;;;22.90;40.50;;;;;;5022625;28;20103;-76
2022/05/09 01:10:55;;;;;;;;;;;22.90;40.60;;;;;;5049074;28;20365;-76
2022/05/09 01:13:21;;;;;;;;;;;22.90;40.50;;;;;;5049576;28;19936;-75
2022/05/09 01:15:48;;;;;;;;;;;22.90;40.50;;;;;;5065104;28;19999;-76
2022/05/09 01:18:14;;;;;;;;;;;22.80;40.40;;;;;;5066410;28;19955;-76
2022/05/09 01:20:40;;;;;;;;;;;22.90;40.50;;;;;;5065684;28;20007;-76
2022/05/09 01:23:07;;;;;;;;;;;22.90;40.50;;;;;;5066229;28;19987;-76
2022/05/09 01:25:33;;;;;;;;;;;22.80;40.30;;;;;;5034347;28;20365;-76
2022/05/09 01:27:59;;;;;;;;;;;22.80;40.40;;;;;;5033612;28;19948;-76
2022/05/09 01:30:28;;;;;;;;;;;22.80;40.30;;;;;;5065585;28;20411;-77
2022/05/09 01:32:55;;;;;;;;;;;22.80;40.40;;;;;;5048538;28;19913;-76
2022/05/09 01:35:40;;;;;;;;;;;22.80;40.30;;;;;;5054026;28;19944;-76
2022/05/09 01:38:10;;;;;;;;;;;22.80;40.30;;;;;;5001296;28;19909;-74
2022/05/09 01:40:35;;;;;;;;;;;22.80;40.30;;;;;;5049147;28;19913;-76
2022/05/09 01:43:01;;;;;;;;;;;22.80;40.30;;;;;;5065799;28;19909;-76
2022/05/09 01:45:26;;;;;;;;;;;22.80;40.20;;;;;;5049207;28;19963;-76
2022/05/09 01:50:36;;;;;;;;;;;22.80;40.30;;;;;;5033020;28;19963;-75
2022/05/09 01:53:01;;;;;;;;;;;22.70;40.20;;;;;;5014981;28;19909;-76
2022/05/09 01:55:27;;;;;;;;;;;22.70;40.30;;;;;;5014100;28;19917;-76
2022/05/09 01:57:52;;;;;;;;;;;22.80;40.30;;;;;;5045825;28;19913;-77
2022/05/09 02:00:17;;;;;;;;;;;22.70;40.30;;;;;;5013867;28;19914;-76
2022/05/09 02:02:43;;;;;;;;;;;22.70;40.20;;;;;;5045907;28;20366;-76
2022/05/09 02:05:09;;;;;;;;;;;22.70;40.20;;;;;;5006047;28;20020;-76
2022/05/09 02:07:35;;;;;;;;;;;22.70;40.30;;;;;;5012550;28;19914;-76
2022/05/09 02:10:00;;;;;;;;;;;22.70;40.30;;;;;;4992534;28;19952;-76
2022/05/09 02:12:27;;;;;;;;;;;22.70;40.10;;;;;;4994353;28;19914;-76
2022/05/09 02:14:53;;;;;;;;;;;22.70;40.20;;;;;;5008727;28;19914;-76
2022/05/09 02:17:18;;;;;;;;;;;22.70;40.30;;;;;;4992966;28;20674;-77
2022/05/09 02:19:44;;;;;;;;;;;22.70;40.20;;;;;;5009118;28;20015;-77
2022/05/09 02:22:09;;;;;;;;;;;22.70;40.10;;;;;;5012510;28;19914;-76
2022/05/09 02:24:35;;;;;;;;;;;22.70;40.10;;;;;;5034724;28;20337;-76
2022/05/09 02:27:00;;;;;;;;;;;22.70;40.00;;;;;;4992865;28;20420;-76
2022/05/09 02:29:26;;;;;;;;;;;22.70;40.10;;;;;;4992686;28;19992;-76
2022/05/09 02:31:51;;;;;;;;;;;22.60;40.20;;;;;;4993071;28;20069;-74
2022/05/09 02:34:17;;;;;;;;;;;22.60;39.90;;;;;;4993150;28;19914;-75
2022/05/09 02:36:42;;;;;;;;;;;22.60;40.10;;;;;;4993473;28;20004;-74
2022/05/09 02:39:08;;;;;;;;;;;22.60;40.00;;;;;;5005585;28;19964;-76
2022/05/09 02:41:33;;;;;;;;;;;22.60;40.00;;;;;;5029122;28;19956;-76
2022/05/09 02:43:59;;;;;;;;;;;22.60;40.00;;;;;;5049257;28;20343;-76
2022/05/09 02:46:24;;;;;;;;;;;22.60;39.90;;;;;;5031767;28;19913;-75
2022/05/09 02:48:50;;;;;;;;;;;22.60;39.70;;;;;;5032330;28;20020;-76
2022/05/09 02:51:17;;;;;;;;;;;22.60;39.90;;;;;;5032122;28;19936;-76
2022/05/09 02:53:42;;;;;;;;;;;22.60;39.80;;;;;;5024963;28;19917;-76
2022/05/09 02:56:07;;;;;;;;;;;22.60;39.90;;;;;;4999846;28;19914;-76
2022/05/09 02:58:33;;;;;;;;;;;22.60;39.70;;;;;;5016112;28;19910;-76
2022/05/09 03:00:59;;;;;;;;;;;22.50;39.60;;;;;;5006997;28;19933;-76
2022/05/09 03:06:08;;;;;;;;;;;22.50;40.00;;;;;;5034790;28;19931;-77
2022/05/09 03:08:34;;;;;;;;;;;22.50;39.70;;;;;;5038821;28;20276;-77
2022/05/09 03:10:59;;;;;;;;;;;22.50;39.90;;;;;;5038563;28;19909;-77
2022/05/09 03:13:25;;;;;;;;;;;22.50;39.70;;;;;;5039212;28;19913;-76
2022/05/09 03:15:51;;;;;;;;;;;22.50;39.90;;;;;;5058560;28;19915;-76
2022/05/09 03:18:18;;;;;;;;;;;22.50;39.70;;;;;;5072843;28;20388;-75
2022/05/09 03:20:45;;;;;;;;;;;22.50;39.70;;;;;;5072183;28;20368;-75
2022/05/09 03:23:10;;;;;;;;;;;22.50;39.70;;;;;;5057485;28;20427;-76
2022/05/09 03:25:36;;;;;;;;;;;22.50;39.70;;;;;;5058553;28;19909;-77
2022/05/09 03:28:03;;;;;;;;;;;22.50;39.80;;;;;;5074030;28;19917;-76
2022/05/09 03:30:29;;;;;;;;;;;22.40;39.90;;;;;;5048626;28;19916;-76
2022/05/09 03:32:54;;;;;;;;;;;22.40;39.90;;;;;;5037109;28;19909;-76
2022/05/09 03:35:20;;;;;;;;;;;22.40;39.90;;;;;;5019497;28;19909;-75
2022/05/09 03:37:45;;;;;;;;;;;22.40;39.90;;;;;;5023045;28;19909;-76
2022/05/09 03:40:11;;;;;;;;;;;22.40;39.80;;;;;;5022770;28;19913;-76
2022/05/09 03:42:36;;;;;;;;;;;22.40;39.90;;;;;;5023843;28;20390;-76
2022/05/09 03:45:02;;;;;;;;;;;22.40;39.90;;;;;;5040632;28;19984;-77
2022/05/09 03:47:28;;;;;;;;;;;22.40;39.90;;;;;;5056162;28;19917;-75
2022/05/09 03:49:55;;;;;;;;;;;22.40;39.80;;;;;;5050828;28;20390;-75
2022/05/09 03:52:21;;;;;;;;;;;22.40;39.90;;;;;;5051080;28;19916;-75
2022/05/09 03:54:46;;;;;;;;;;;22.40;40.00;;;;;;5045034;28;19909;-75
2022/05/09 03:57:12;;;;;;;;;;;22.40;39.90;;;;;;5035674;28;19913;-75
2022/05/09 03:59:37;;;;;;;;;;;22.40;39.90;;;;;;5052197;28;20007;-76
2022/05/09 04:02:03;;;;;;;;;;;22.30;39.90;;;;;;5053723;28;19956;-76
2022/05/09 04:04:28;;;;;;;;;;;22.30;39.90;;;;;;5040038;28;19916;-76
2022/05/09 04:06:54;;;;;;;;;;;22.30;39.80;;;;;;5023727;28;19913;-75
2022/05/09 04:09:19;;;;;;;;;;;22.40;39.90;;;;;;5039436;28;19913;-77
2022/05/09 04:11:46;;;;;;;;;;;22.30;39.80;;;;;;5023395;28;19955;-76
2022/05/09 04:14:12;;;;;;;;;;;22.30;39.80;;;;;;5023469;28;19970;-76
2022/05/09 04:16:50;;;;;;;;;;;22.30;39.80;;;;;;5040012;28;19909;-76
2022/05/09 04:19:16;;;;;;;;;;;22.30;39.80;;;;;;5041642;28;19913;-77
2022/05/09 04:21:41;;;;;;;;;;;22.30;39.80;;;;;;5040121;28;20055;-76
2022/05/09 04:24:07;;;;;;;;;;;22.40;39.70;;;;;;5039865;28;19908;-76
2022/05/09 04:26:32;;;;;;;;;;;22.30;39.60;;;;;;5056732;28;20006;-77
2022/05/09 04:28:58;;;;;;;;;;;22.30;39.80;;;;;;5039832;28;19908;-76
2022/05/09 04:31:24;;;;;;;;;;;22.30;39.70;;;;;;5040190;28;19909;-76
2022/05/09 04:33:49;;;;;;;;;;;22.30;39.60;;;;;;5040646;28;20380;-77
2022/05/09 04:36:15;;;;;;;;;;;22.30;39.60;;;;;;5022404;28;19976;-76
2022/05/09 04:38:42;;;;;;;;;;;22.30;39.60;;;;;;5064991;28;20007;-77
2022/05/09 04:41:10;;;;;;;;;;;22.20;39.50;;;;;;5037876;28;19913;-76
2022/05/09 04:43:36;;;;;;;;;;;22.30;39.70;;;;;;5037049;28;19909;-76
2022/05/09 04:46:01;;;;;;;;;;;22.20;39.70;;;;;;5037287;28;19909;-77
2022/05/09 04:48:27;;;;;;;;;;;22.10;39.90;;;;;;5037555;28;19976;-76
2022/05/09 04:50:53;;;;;;;;;;;22.10;39.90;;;;;;5036713;28;20023;-77
2022/05/09 04:53:18;;;;;;;;;;;22.10;39.90;;;;;;5026617;28;20252;-76
2022/05/09 04:55:44;;;;;;;;;;;22.10;39.90;;;;;;5050340;28;19913;-77
2022/05/09 04:58:13;;;;;;;;;;;22.10;39.90;;;;;;5055756;28;19909;-77
2022/05/09 05:00:38;;;;;;;;;;;22.10;39.90;;;;;;5057550;28;19916;-77
2022/05/09 05:03:04;;;;;;;;;;;22.10;39.90;;;;;;5039298;28;19913;-77
2022/05/09 05:05:29;;;;;;;;;;;22.20;40.00;;;;;;5072609;28;19921;-77
2022/05/09 05:07:55;;;;;;;;;;;22.20;39.80;;;;;;5069910;28;19982;-77
2022/05/09 05:10:20;;;;;;;;;;;22.10;39.80;;;;;;5035918;28;19981;-76
2022/05/09 05:12:46;;;;;;;;;;;22.20;39.80;;;;;;5058779;28;20000;-77
2022/05/09 05:15:11;;;;;;;;;;;22.20;39.80;;;;;;5019295;28;19974;-76
2022/05/09 05:17:37;;;;;;;;;;;22.20;39.90;;;;;;5051559;28;19909;-76
2022/05/09 05:20:04;;;;;;;;;;;22.20;39.80;;;;;;5034934;28;19917;-76
2022/05/09 05:22:30;;;;;;;;;;;22.20;39.90;;;;;;5018702;28;19944;-76
2022/05/09 05:24:55;;;;;;;;;;;22.10;39.90;;;;;;5018425;28;19921;-76
2022/05/09 05:27:21;;;;;;;;;;;22.20;40.00;;;;;;5034284;28;19909;-76
2022/05/09 05:29:47;;;;;;;;;;;22.20;40.10;;;;;;5044576;28;19940;-75
2022/05/09 05:32:20;;;;;;;;;;;22.20;40.10;;;;;;5070598;28;19952;-75
2022/05/09 05:34:46;;;;;;;;;;;22.10;40.10;;;;;;5068968;28;19974;-77
2022/05/09 05:37:12;;;;;;;;;;;22.20;40.10;;;;;;5070304;28;19913;-76
2022/05/09 05:39:38;;;;;;;;;;;22.20;40.10;;;;;;5055222;28;20234;-77
2022/05/09 05:42:04;;;;;;;;;;;22.20;40.10;;;;;;5053614;28;19909;-76
2022/05/09 05:44:30;;;;;;;;;;;22.10;39.80;;;;;;5054082;28;19998;-75
2022/05/09 05:46:55;;;;;;;;;;;22.10;40.00;;;;;;5060698;28;19913;-75
2022/05/09 05:49:21;;;;;;;;;;;22.10;39.70;;;;;;5033857;28;19909;-75
2022/05/09 05:51:46;;;;;;;;;;;22.10;39.70;;;;;;5035364;28;19980;-75
2022/05/09 05:54:11;;;;;;;;;;;22.10;40.00;;;;;;5056668;28;20288;-76
2022/05/09 05:56:37;;;;;;;;;;;22.10;40.30;;;;;;5074795;28;19926;-75
2022/05/09 05:59:04;;;;;;;;;;;22.10;40.00;;;;;;5075037;28;19912;-75
2022/05/09 06:01:29;;;;;;;;;;;22.10;40.00;;;;;;5057066;28;19920;-76
2022/05/09 06:03:54;;;;;;;;;;;22.10;40.20;;;;;;5045404;28;20296;-76
2022/05/09 06:06:20;;;;;;;;;;;22.10;40.30;;;;;;5053637;28;19991;-76
2022/05/09 06:08:46;;;;;;;;;;;22.00;40.10;;;;;;5037435;28;20352;-76
2022/05/09 06:11:13;;;;;;;;;;;22.00;40.20;;;;;;5054564;28;19924;-75
2022/05/09 06:13:38;;;;;;;;;;;22.00;40.10;;;;;;5053036;28;19916;-76
2022/05/09 06:16:04;;;;;;;;;;;22.00;40.30;;;;;;5053139;28;19913;-76
2022/05/09 06:18:29;;;;;;;;;;;22.00;40.30;;;;;;5073187;28;20385;-75
2022/05/09 06:20:55;;;;;;;;;;;22.00;40.30;;;;;;5072767;28;19912;-75
2022/05/09 06:23:20;;;;;;;;;;;22.00;40.40;;;;;;5056728;28;19923;-75
2022/05/09 06:25:47;;;;;;;;;;;22.00;40.30;;;;;;5018821;28;19913;-76
2022/05/09 06:28:12;;;;;;;;;;;22.00;40.40;;;;;;5019088;28;19948;-76
2022/05/09 06:30:38;;;;;;;;;;;22.00;40.20;;;;;;5018885;28;19966;-76
2022/05/09 06:33:04;;;;;;;;;;;22.00;40.50;;;;;;5026147;28;19927;-75
2022/05/09 06:35:29;;;;;;;;;;;22.00;40.70;;;;;;5044277;28;21256;-76
2022/05/09 06:37:56;;;;;;;;;;;21.90;40.80;;;;;;5017806;28;19913;-75
2022/05/09 06:40:22;;;;;;;;;;;21.80;40.80;;;;;;5058969;28;19921;-75
2022/05/09 06:42:51;;;;;;;;;;;21.70;41.20;;;;;;5056463;28;19909;-76
2022/05/09 06:45:16;;;;;;;;;;;21.70;41.40;;;;;;5016826;28;20364;-75
2022/05/09 06:47:48;;;;;;;;;;;21.60;41.50;;;;;;5072128;28;19909;-75
2022/05/09 06:50:14;;;;;;;;;;;21.70;41.80;;;;;;5068962;28;19951;-76
2022/05/09 06:52:40;;;;;;;;;;;21.60;41.90;;;;;;5051503;28;19913;-75
2022/05/09 06:55:05;;;;;;;;;;;21.60;42.00;;;;;;5048091;28;19913;-76
2022/05/09 06:57:33;;;;;;;;;;;21.60;42.00;;;;;;5035360;28;19913;-75
2022/05/09 06:59:58;;;;;;;;;;;21.60;42.00;;;;;;5063405;28;19920;-76
2022/05/09 07:02:24;;;;;;;;;;;21.50;42.20;;;;;;5045606;28;20363;-76
2022/05/09 07:04:49;;;;;;;;;;;21.60;42.30;;;;;;5055544;28;20419;-75
2022/05/09 07:07:15;;;;;;;;;;;21.50;42.30;;;;;;5078805;28;20324;-76
2022/05/09 07:09:40;;;;;;;;;;;21.50;42.40;;;;;;5054538;28;20269;-76
2022/05/09 07:12:07;;;;;;;;;;;21.50;42.40;;;;;;5053857;28;19909;-75
2022/05/09 07:14:32;;;;;;;;;;;21.50;42.40;;;;;;5054844;28;20071;-76
2022/05/09 07:16:58;;;;;;;;;;;21.50;42.40;;;;;;5071447;28;19940;-75
2022/05/09 07:19:23;;;;;;;;;;;21.50;42.50;;;;;;5037765;28;19913;-75
2022/05/09 07:21:49;;;;;;;;;;;21.40;42.20;;;;;;5044998;28;19929;-75
2022/05/09 07:24:14;;;;;;;;;;;21.50;41.70;;;;;;5044329;28;19939;-76
2022/05/09 07:26:39;;;;;;;;;;;21.60;42.20;;;;;;5070186;28;19908;-76
2022/05/09 07:29:05;;;;;;;;;;;21.60;42.20;;;;;;5044919;28;19916;-76
2022/05/09 07:31:31;;;;;;;;;;;21.60;42.20;;;;;;5053177;28;19916;-77
2022/05/09 07:33:56;;;;;;;;;;;21.50;42.20;;;;;;5079770;28;20427;-75
2022/05/09 07:36:21;;;;;;;;;;;21.50;42.50;;;;;;5045110;28;19931;-75
2022/05/09 07:38:47;;;;;;;;;;;21.50;42.60;;;;;;5036925;28;19959;-76
2022/05/09 07:41:12;;;;;;;;;;;21.40;42.50;;;;;;5050756;28;19921;-76
2022/05/09 07:43:38;;;;;;;;;;;21.40;42.50;;;;;;5023403;28;19912;-76
2022/05/09 07:46:03;;;;;;;;;;;21.40;42.50;;;;;;5052172;28;19909;-75
2022/05/09 07:48:29;;;;;;;;;;;21.50;42.50;;;;;;5070088;28;19943;-76
2022/05/09 07:50:55;;;;;;;;;;;21.50;42.30;;;;;;5033402;28;19912;-75
2022/05/09 07:53:21;;;;;;;;;;;21.50;42.50;;;;;;5069749;28;20361;-76
2022/05/09 07:55:47;;;;;;;;;;;21.50;42.40;;;;;;5052884;28;19909;-76
2022/05/09 07:58:13;;;;;;;;;;;21.50;42.30;;;;;;5068143;28;19917;-75
2022/05/09 08:00:38;;;;;;;;;;;21.70;42.00;;;;;;5069123;28;19913;-74
2022/05/09 08:03:04;;;;;;;;;;;21.60;41.90;;;;;;5051914;28;19916;-75
2022/05/09 08:05:30;;;;;;;;;;;21.70;41.60;;;;;;5069719;28;19932;-76
2022/05/09 08:07:55;;;;;;;;;;;21.70;41.70;;;;;;5053248;28;20319;-76
2022/05/09 08:10:21;;;;;;;;;;;21.80;41.70;;;;;;5053122;28;19909;-76
2022/05/09 08:12:47;;;;;;;;;;;21.80;41.70;;;;;;5068849;28;19909;-76
2022/05/09 08:15:13;;;;;;;;;;;21.80;41.70;;;;;;5076145;28;19916;-76
2022/05/09 08:17:39;;;;;;;;;;;21.80;41.40;;;;;;5050083;28;19921;-76
2022/05/09 08:20:04;;;;;;;;;;;21.80;41.40;;;;;;5033807;28;20131;-75
2022/05/09 08:22:31;;;;;;;;;;;21.90;41.50;;;;;;5069304;28;19913;-75
2022/05/09 08:25:00;;;;;;;;;;;21.80;41.50;;;;;;5052125;28;19917;-75
2022/05/09 08:27:25;;;;;;;;;;;21.90;41.50;;;;;;5045443;28;19913;-76
2022/05/09 08:29:54;;;;;;;;;;;22.00;41.60;;;;;;5058064;28;19913;-76
2022/05/09 08:32:20;;;;;;;;;;;22.10;41.40;;;;;;5033587;28;20376;-76
2022/05/09 08:34:45;;;;;;;;;;;22.10;41.40;;;;;;5048913;28;19947;-76
2022/05/09 08:37:11;;;;;;;;;;;22.00;41.40;;;;;;5052510;28;20000;-76
2022/05/09 08:39:36;;;;;;;;;;;22.00;41.40;;;;;;5034725;28;19955;-76
2022/05/09 08:42:04;;;;;;;;;;;22.00;41.40;;;;;;5033804;28;19920;-77
2022/05/09 08:44:46;;;;;;;;;;;22.00;41.50;;;;;;5035030;28;20007;-75
2022/05/09 08:47:24;;;;;;;;;;;22.00;41.70;;;;;;5047754;28;20376;-76
2022/05/09 08:49:53;;;;;;;;;;;22.00;42.00;;;;;;5052185;28;19954;-75
2022/05/09 08:52:34;;;;;;;;;;;22.00;41.80;;;;;;5034594;28;19909;-76
2022/05/09 08:55:00;;;;;;;;;;;22.00;41.90;;;;;;5059262;28;20258;-75
2022/05/09 08:57:28;;;;;;;;;;;22.00;42.00;;;;;;5067196;28;19962;-75
2022/05/09 09:00:04;;;;;;;;;;;22.00;42.80;;;;;;5065383;28;19990;-75
2022/05/09 09:02:32;;;;;;;;;;;22.00;42.10;;;;;;5051597;28;19916;-75
2022/05/09 09:04:58;;;;;;;;;;;22.00;42.00;;;;;;5050122;28;19932;-75
2022/05/09 09:07:24;;;;;;;;;;;22.00;41.70;;;;;;5034717;28;19908;-76
2022/05/09 09:10:09;;;;;;;;;;;22.00;41.90;;;;;;5046130;28;20380;-76
2022/05/09 09:12:44;;;;;;;;;;;22.10;42.00;;;;;;5033810;28;19976;-76
2022/05/09 09:15:15;;;;;;;;;;;22.10;41.70;;;;;;5016411;28;20297;-76
2022/05/09 09:17:51;;;;;;;;;;;22.10;41.40;;;;;;5045828;28;20316;-76
2022/05/09 09:20:43;;;;;;;;;;;22.10;41.50;;;;;;5026097;28;19942;-75
2022/05/09 09:23:17;;;;;;;;;;;22.10;41.80;;;;;;5019613;28;19912;-76
2022/05/09 09:25:42;;;;;;;;;;;22.10;41.70;;;;;;5047771;28;19913;-76
2022/05/09 09:28:11;;;;;;;;;;;22.00;41.90;;;;;;5027350;28;20008;-74
2022/05/09 09:30:37;;;;;;;;;;;22.00;41.50;;;;;;5052003;28;19978;-75
2022/05/09 09:33:06;;;;;;;;;;;22.00;41.70;;;;;;5067845;28;20400;-77
2022/05/09 09:35:32;;;;;;;;;;;22.10;42.00;;;;;;5034683;28;19917;-75
2022/05/09 09:38:00;;;;;;;;;;;22.10;41.60;;;;;;5035214;28;19912;-76
2022/05/09 09:40:26;;;;;;;;;;;22.10;41.80;;;;;;5053402;28;19916;-75
2022/05/09 09:42:52;;;;;;;;;;;22.10;41.90;;;;;;5052577;28;19909;-76
2022/05/09 09:45:31;;;;;;;;;;;22.10;41.70;;;;;;5035366;28;19908;-75
2022/05/09 09:48:07;;;;;;;;;;;22.10;41.80;;;;;;5051901;28;19909;-75
2022/05/09 09:50:32;;;;;;;;;;;22.10;41.60;;;;;;5059778;28;19916;-77
2022/05/09 09:52:59;;;;;;;;;;;22.10;42.00;;;;;;5023778;28;19909;-77
2022/05/09 09:55:24;;;;;;;;;;;22.10;41.70;;;;;;5073843;28;19909;-75
2022/05/09 09:57:49;;;;;;;;;;;22.20;41.80;;;;;;5032524;28;19916;-76
2022/05/09 10:00:19;;;;;;;;;;;22.30;41.80;;;;;;5073965;28;19923;-77
2022/05/09 10:02:45;;;;;;;;;;;22.20;41.70;;;;;;5058733;28;19948;-76
2022/05/09 10:05:12;;;;;;;;;;;22.30;41.80;;;;;;5039533;28;19921;-76
2022/05/09 10:07:39;;;;;;;;;;;22.30;41.50;;;;;;5045035;28;20003;-76
2022/05/09 10:10:10;;;;;;;;;;;22.30;41.60;;;;;;5039268;28;19917;-76
2022/05/09 10:12:35;;;;;;;;;;;22.30;41.80;;;;;;5064976;28;19908;-76
2022/05/09 10:15:02;;;;;;;;;;;22.30;41.70;;;;;;5039554;28;19971;-76
2022/05/09 10:17:28;;;;;;;;;;;22.30;41.50;;;;;;5074005;28;19957;-75
2022/05/09 10:19:54;;;;;;;;;;;22.30;41.60;;;;;;5064527;28;20296;-75
2022/05/09 10:25:13;;;;;;;;;;;22.40;41.50;;;;;;5042472;28;20327;-76
2022/05/09 10:27:39;;;;;;;;;;;22.40;41.40;;;;;;5062111;28;19908;-75
2022/05/09 10:30:06;;;;;;;;;;;22.40;41.50;;;;;;5064803;28;20368;-74
2022/05/09 10:32:40;;;;;;;;;;;22.40;41.80;;;;;;5055041;28;19916;-75
2022/05/09 10:35:08;;;;;;;;;;;22.40;41.60;;;;;;5069978;28;19909;-74
2022/05/09 10:37:57;;;;;;;;;;;22.40;41.60;;;;;;5038437;28;20344;-74
2022/05/09 10:40:30;;;;;;;;;;;22.40;41.20;;;;;;5037463;28;19921;-75
2022/05/09 10:42:58;;;;;;;;;;;22.40;41.70;;;;;;5051662;28;19912;-74
2022/05/09 10:45:24;;;;;;;;;;;22.50;41.80;;;;;;5071223;28;19916;-76
2022/05/09 10:47:56;;;;;;;;;;;22.50;41.50;;;;;;5048727;28;19913;-77
2022/05/09 10:50:28;;;;;;;;;;;22.50;41.60;;;;;;5044704;28;20349;-74
2022/05/09 10:53:12;;;;;;;;;;;22.50;41.60;;;;;;5053117;28;19919;-75
2022/05/09 10:55:47;;;;;;;;;;;22.50;41.20;;;;;;5072142;28;19944;-75
2022/05/09 10:58:33;;;;;;;;;;;22.50;41.20;;;;;;5047103;28;19909;-75
2022/05/09 11:01:00;;;;;;;;;;;22.50;41.60;;;;;;5068240;28;19920;-75
2022/05/09 11:03:26;;;;;;;;;;;22.50;41.50;;;;;;5071050;28;19959;-77
2022/05/09 11:05:51;;;;;;;;;;;22.60;41.50;;;;;;5048992;28;19929;-75
2022/05/09 11:08:20;;;;;;;;;;;22.60;41.50;;;;;;5052175;28;19917;-76
2022/05/09 11:10:48;;;;;;;;;;;22.60;41.10;;;;;;5029479;28;19924;-77
2022/05/09 11:13:26;;;;;;;;;;;22.60;41.30;;;;;;5064988;28;19920;-75
2022/05/09 11:16:10;;;;;;;;;;;22.60;41.10;;;;;;5045826;28;19909;-75
2022/05/09 11:19:14;;;;;;;;;;;22.60;41.30;;;;;;5040904;28;20047;-76
2022/05/09 11:21:58;;;;;;;;;;;22.60;40.80;;;;;;4977929;28;20008;-76
2022/05/09 11:24:42;;;;;;;;;;;22.60;41.10;;;;;;5034918;28;20011;-77
2022/05/09 11:27:26;;;;;;;;;;;22.60;40.90;;;;;;5037159;28;19916;-75
2022/05/09 11:30:03;;;;;;;;;;;22.60;40.90;;;;;;5037619;28;19909;-76
2022/05/09 11:32:42;;;;;;;;;;;22.60;40.90;;;;;;5071055;28;19946;-77
2022/05/09 11:35:22;;;;;;;;;;;22.70;41.00;;;;;;5036819;28;19909;-75
2022/05/09 11:37:57;;;;;;;;;;;22.70;41.10;;;;;;5036263;28;20020;-76
2022/05/09 11:40:41;;;;;;;;;;;22.70;41.20;;;;;;5051474;28;19970;-76
2022/05/09 11:43:28;;;;;;;;;;;22.60;41.10;;;;;;5052544;28;19909;-76
2022/05/09 11:45:57;;;;;;;;;;;22.70;40.80;;;;;;5041038;28;19917;-76
2022/05/09 11:48:22;;;;;;;;;;;22.70;41.10;;;;;;5028559;28;19912;-77
2022/05/09 11:50:53;;;;;;;;;;;22.70;41.30;;;;;;5035304;28;19916;-76
2022/05/09 11:53:19;;;;;;;;;;;22.70;41.40;;;;;;5043679;28;19968;-75
2022/05/09 11:55:44;;;;;;;;;;;22.70;41.20;;;;;;5035690;28;20012;-76
2022/05/09 11:58:10;;;;;;;;;;;22.70;41.00;;;;;;5033778;28;19916;-77
2022/05/09 12:00:35;;;;;;;;;;;22.70;40.90;;;;;;5022922;28;19917;-76
2022/05/09 12:03:01;;;;;;;;;;;22.80;40.80;;;;;;5053771;28;19944;-75
2022/05/09 12:05:27;;;;;;;;;;;22.80;41.00;;;;;;5064020;28;19921;-75
2022/05/09 12:08:02;;;;;;;;;;;22.80;40.80;;;;;;5036316;28;19913;-77
2022/05/09 12:10:28;;;;;;;;;;;22.80;41.30;;;;;;5062471;28;19909;-76
2022/05/09 12:12:56;;;;;;;;;;;22.80;41.30;;;;;;5050934;28;19916;-76
2022/05/09 12:15:21;;;;;;;;;;;22.80;41.30;;;;;;5029640;28;20040;-76
2022/05/09 12:17:53;;;;;;;;;;;22.80;41.20;;;;;;5043979;28;20373;-76
2022/05/09 12:20:23;;;;;;;;;;;22.80;41.30;;;;;;5070581;28;19917;-76
2022/05/09 12:22:51;;;;;;;;;;;22.90;40.70;;;;;;5048113;28;19917;-76
2022/05/09 12:25:40;;;;;;;;;;;23.00;40.90;;;;;;5044669;28;19920;-76
2022/05/09 12:28:18;;;;;;;;;;;23.00;40.80;;;;;;5051112;28;19923;-75
2022/05/09 12:30:45;;;;;;;;;;;23.00;40.90;;;;;;5019343;28;19917;-77
2022/05/09 12:33:15;;;;;;;;;;;23.00;40.80;;;;;;5041243;28;19916;-76
2022/05/09 12:35:41;;;;;;;;;;;23.10;41.20;;;;;;5033262;28;19994;-75
2022/05/09 12:38:06;;;;;;;;;;;23.10;40.70;;;;;;5026822;28;20364;-75
2022/05/09 12:40:33;;;;;;;;;;;23.10;40.50;;;;;;5058331;28;19971;-77
2022/05/09 12:42:59;;;;;;;;;;;23.20;40.50;;;;;;5038486;28;20366;-76
2022/05/09 12:45:32;;;;;;;;;;;23.20;40.70;;;;;;5122904;27;20291;-61
2022/05/09 12:47:58;;;;;;;;;;;23.20;40.90;;;;;;5108965;28;19920;-61
2022/05/09 12:50:26;;;;;;;;;;;23.20;41.10;;;;;;5107718;28;19912;-61
2022/05/09 12:52:53;;;;;;;;;;;23.20;41.30;;;;;;5106869;28;20259;-61
2022/05/09 12:58:19;;;;;;;;;;;23.30;40.90;;;;;;5107306;28;20421;-61
2022/05/09 13:00:45;;;;;;;;;;;23.20;40.80;;;;;;5106882;28;20326;-61
2022/05/09 13:03:10;;;;;;;;;;;23.30;40.90;;;;;;5108551;28;19912;-61
2022/05/09 13:05:38;;;;;;;;;;;23.30;40.50;;;;;;5104039;28;19912;-61
2022/05/09 13:08:04;;;;;;;;;;;23.40;40.00;;;;;;5081294;28;20590;-61
2022/05/09 13:10:30;;;;;;;;;;;23.40;40.00;;;;;;5086174;28;19916;-61
2022/05/09 13:13:05;;;;;;;;;;;23.50;40.20;;;;;;5082331;28;19963;-61
2022/05/09 13:15:30;;;;;;;;;;;23.50;40.20;;;;;;5086807;28;19909;-61
2022/05/09 13:17:58;;;;;;;;;;;23.50;40.30;;;;;;5087001;28;19931;-60
2022/05/09 13:20:24;;;;;;;;;;;23.50;39.80;;;;;;5086016;28;20367;-61
2022/05/09 13:22:51;;;;;;;;;;;23.50;40.40;;;;;;5086782;28;19919;-61
2022/05/09 13:25:17;;;;;;;;;;;23.50;40.50;;;;;;5084392;28;20233;-62
2022/05/09 13:27:47;;;;;;;;;;;23.50;40.70;;;;;;5086534;28;20356;-62
2022/05/09 13:30:13;;;;;;;;;;;23.50;40.80;;;;;;5084354;28;20082;-63
2022/05/09 13:32:39;;;;;;;;;;;23.50;40.90;;;;;;5087036;28;20020;-63
2022/05/09 13:35:15;;;;;;;;;;;23.50;41.00;;;;;;5088282;28;19958;-63
2022/05/09 13:37:41;;;;;;;;;;;23.50;41.70;;;;;;5086081;28;20326;-61
2022/05/09 13:40:08;;;;;;;;;;;23.50;41.30;;;;;;5088075;28;19947;-60
2022/05/09 13:42:33;;;;;;;;;;;23.50;41.30;;;;;;5077751;28;19943;-60
2022/05/09 13:45:03;;;;;;;;;;;23.50;41.20;;;;;;5084106;28;20384;-60
2022/05/09 13:47:28;;;;;;;;;;;23.50;41.20;;;;;;5086525;28;20261;-63
2022/05/09 13:49:57;;;;;;;;;;;23.50;41.20;;;;;;5081616;28;19962;-61
2022/05/09 13:52:30;;;;;;;;;;;23.60;40.80;;;;;;5080678;28;20322;-61
2022/05/09 13:54:57;;;;;;;;;;;23.60;40.60;;;;;;5083523;28;20300;-61
2022/05/09 13:57:32;;;;;;;;;;;23.70;40.90;;;;;;5072589;28;19909;-61
2022/05/09 13:59:59;;;;;;;;;;;23.70;41.10;;;;;;5072127;28;20225;-61
2022/05/09 14:02:26;;;;;;;;;;;23.70;41.20;;;;;;5056016;28;19913;-61
2022/05/09 14:04:58;;;;;;;;;;;23.70;41.30;;;;;;5071529;28;19970;-60
2022/05/09 14:07:41;;;;;;;;;;;23.70;40.50;;;;;;5072834;28;19916;-60
2022/05/09 14:10:09;;;;;;;;;;;23.70;39.80;;;;;;5072883;28;19908;-61
2022/05/09 14:12:36;;;;;;;;;;;23.80;40.20;;;;;;5071904;28;19913;-61
2022/05/09 14:15:03;;;;;;;;;;;23.80;40.50;;;;;;5073437;28;19908;-61
2022/05/09 14:17:30;;;;;;;;;;;23.80;40.80;;;;;;5063599;28;20372;-61
2022/05/09 14:19:58;;;;;;;;;;;23.80;41.00;;;;;;5071198;28;19912;-61
2022/05/09 14:22:23;;;;;;;;;;;23.80;41.30;;;;;;5072367;28;20307;-61
2022/05/09 14:30:21;;;;;;;;;;;23.80;41.00;;;;;;5077329;28;19919;-61
2022/05/09 14:32:53;;;;;;;;;;;23.90;40.80;;;;;;5052540;28;19916;-61
2022/05/09 14:35:35;;;;;;;;;;;23.90;40.00;;;;;;5065151;28;19985;-61
2022/05/09 14:38:00;;;;;;;;;;;24.00;39.80;;;;;;5071197;28;20147;-61